createdAt,value
2023-04-18T05:19:58.204Z,8.38
2023-04-18T05:22:25.215Z,9.45
2023-04-18T05:24:52.448Z,9.00
2023-04-18T05:27:19.559Z,9.18
2023-04-18T05:29:47.884Z,8.90
2023-04-18T05:32:15.351Z,10.57
2023-04-18T05:34:44.732Z,9.63
2023-04-18T05:37:12.093Z,9.90
2023-04-18T05:39:39.631Z,9.77
2023-04-18T05:42:07.094Z,9.40
2023-04-18T05:44:34.281Z,9.50
2023-04-18T05:47:07.367Z,9.65
2023-04-18T05:49:34.356Z,7.75
2023-04-18T05:52:01.403Z,9.82
2023-04-18T05:54:30.354Z,9.57
2023-04-18T05:56:58.536Z,9.48
2023-04-18T05:59:28.985Z,9.63
2023-04-18T06:01:58.391Z,9.00
2023-04-18T06:04:27.413Z,9.63
2023-04-18T06:06:57.319Z,9.25
2023-04-18T06:09:24.276Z,9.02
2023-04-18T06:11:53.422Z,8.68
2023-04-18T06:14:20.640Z,8.73
2023-04-18T06:16:47.925Z,8.73
2023-04-18T06:19:22.210Z,9.27
2023-04-18T06:21:51.041Z,8.80
2023-04-18T06:24:18.248Z,8.50
2023-04-18T06:26:45.229Z,8.40
2023-04-18T06:29:12.760Z,8.52
2023-04-18T06:31:40.007Z,8.93
2023-04-18T06:34:07.060Z,8.48
2023-04-18T06:36:34.190Z,7.85
2023-04-18T06:39:01.689Z,7.55
2023-04-18T06:41:28.701Z,8.65
2023-04-18T06:44:03.452Z,7.85
2023-04-18T06:46:33.409Z,9.45
2023-04-18T06:49:01.938Z,7.25
2023-04-18T06:51:29.202Z,7.07
2023-04-18T06:53:56.191Z,7.22
2023-04-18T06:56:23.516Z,8.02
2023-04-18T06:58:52.908Z,8.00
2023-04-18T07:01:22.502Z,6.72
2023-04-18T07:03:49.677Z,7.97
2023-04-18T07:06:20.229Z,7.20
2023-04-18T07:08:56.959Z,8.02
2023-04-18T07:11:23.922Z,7.18
2023-04-18T07:13:51.070Z,8.38
2023-04-18T07:16:18.187Z,8.40
2023-04-18T07:18:46.332Z,7.60
2023-04-18T07:21:16.130Z,7.43
2023-04-18T07:23:43.631Z,8.40
2023-04-18T07:26:15.408Z,7.25
2023-04-18T07:28:42.380Z,7.32
2023-04-18T07:31:14.845Z,7.35
2023-04-18T07:33:43.377Z,6.70
2023-04-18T07:36:10.910Z,7.72
2023-04-18T07:38:38.125Z,7.93
2023-04-18T07:41:05.586Z,7.85
2023-04-18T07:43:33.047Z,8.10
2023-04-18T07:46:00.760Z,7.15
2023-04-18T07:48:28.050Z,8.10
2023-04-18T07:50:55.245Z,8.65
2023-04-18T07:53:22.249Z,9.30
2023-04-18T07:55:50.360Z,10.32
2023-04-18T07:58:17.670Z,8.63
2023-04-18T08:00:46.100Z,8.05
2023-04-18T08:03:14.759Z,6.82
2023-04-18T08:05:43.698Z,7.20
2023-04-18T08:08:18.169Z,7.22
2023-04-18T08:10:57.193Z,7.38
2023-04-18T08:13:24.634Z,8.77
2023-04-18T08:15:51.615Z,7.82
2023-04-18T08:18:21.637Z,7.07
2023-04-18T08:20:48.944Z,7.30
2023-04-18T08:23:20.946Z,6.40
2023-04-18T08:25:51.176Z,6.97
2023-04-18T08:28:19.038Z,6.80
2023-04-18T08:30:50.302Z,8.35
2023-04-18T08:33:19.954Z,6.85
2023-04-18T08:35:47.034Z,6.32
2023-04-18T08:38:14.812Z,8.00
2023-04-18T08:40:43.624Z,7.38
2023-04-18T08:43:14.191Z,7.55
2023-04-18T08:45:46.044Z,7.38
2023-04-18T08:48:18.367Z,7.50
2023-04-18T08:50:48.347Z,6.80
2023-04-18T08:53:18.522Z,6.95
2023-04-18T08:55:47.775Z,6.75
2023-04-18T08:58:22.727Z,7.28
2023-04-18T09:00:51.853Z,7.10
2023-04-18T09:03:40.302Z,6.63
2023-04-18T09:06:13.956Z,7.10
2023-04-18T09:08:46.001Z,7.43
2023-04-18T09:11:32.561Z,7.03
2023-04-18T09:13:59.654Z,6.75
2023-04-18T09:16:46.996Z,6.88
2023-04-18T09:19:18.917Z,7.50
2023-04-18T09:21:47.415Z,7.30
2023-04-18T09:24:33.016Z,6.68
2023-04-18T09:27:01.302Z,7.05
2023-04-18T09:30:04.021Z,7.10
2023-04-18T09:32:32.698Z,6.63
2023-04-18T09:35:10.761Z,7.05
2023-04-18T09:37:52.123Z,6.30
2023-04-18T09:40:20.212Z,7.20
2023-04-18T09:42:48.894Z,6.50
2023-04-18T09:45:19.805Z,5.90
2023-04-18T09:47:49.968Z,6.82
2023-04-18T09:50:20.911Z,6.40
2023-04-18T09:52:55.075Z,6.03
2023-04-18T09:55:22.217Z,6.13
2023-04-18T09:57:49.969Z,5.72
2023-04-18T10:00:24.337Z,5.93
2023-04-18T10:02:51.716Z,6.20
2023-04-18T10:05:23.806Z,6.72
2023-04-18T10:07:52.132Z,5.20
2023-04-18T10:10:21.001Z,5.88
2023-04-18T10:12:57.548Z,6.15
2023-04-18T10:15:29.560Z,5.90
2023-04-18T10:18:05.228Z,5.85
2023-04-18T10:20:37.149Z,6.22
2023-04-18T10:23:38.063Z,4.75
2023-04-18T10:26:08.093Z,6.50
2023-04-18T10:28:57.159Z,6.10
2023-04-18T10:31:29.228Z,4.80
2023-04-18T10:34:06.861Z,3.97
2023-04-18T10:36:37.065Z,5.57
2023-04-18T10:39:25.609Z,4.60
2023-04-18T10:41:57.120Z,4.70
2023-04-18T10:44:26.757Z,3.95
2023-04-18T10:46:56.996Z,5.10
2023-04-18T10:49:32.622Z,4.32
2023-04-18T10:52:02.203Z,5.70
2023-04-18T10:54:58.864Z,4.75
2023-04-18T10:57:42.422Z,4.60
2023-04-18T11:00:21.596Z,4.40
2023-04-18T11:02:52.943Z,5.13
2023-04-18T11:05:28.218Z,5.07
2023-04-18T11:07:56.114Z,5.28
2023-04-18T11:10:26.357Z,4.60
2023-04-18T11:12:55.202Z,4.13
2023-04-18T11:15:25.471Z,4.60
2023-04-18T11:18:00.509Z,4.72
2023-04-18T11:20:28.150Z,5.25
2023-04-18T11:22:59.974Z,4.63
2023-04-18T11:25:32.619Z,5.13
2023-04-18T11:28:03.882Z,4.50
2023-04-18T11:30:46.569Z,4.90
2023-04-18T11:33:20.440Z,4.90
2023-04-18T11:35:57.771Z,3.97
2023-04-18T11:38:31.190Z,3.33
2023-04-18T11:41:03.756Z,3.78
2023-04-18T11:43:30.850Z,3.67
2023-04-18T11:46:01.134Z,4.35
2023-04-18T11:48:42.167Z,3.47
2023-04-18T11:51:31.944Z,3.42
2023-04-18T11:53:59.299Z,3.65
2023-04-18T11:56:27.818Z,3.83
2023-04-18T11:58:56.448Z,3.15
2023-04-18T12:01:25.208Z,3.50
2023-04-18T12:04:10.203Z,3.33
2023-04-18T12:06:50.849Z,2.95
2023-04-18T12:09:18.690Z,3.55
2023-04-18T12:12:01.097Z,3.10
2023-04-18T12:14:31.070Z,2.92
2023-04-18T12:16:58.164Z,2.50
2023-04-18T12:19:30.024Z,2.35
2023-04-18T12:22:00.743Z,3.17
2023-04-18T12:24:31.090Z,2.53
2023-04-18T12:26:59.175Z,2.83
2023-04-18T12:29:27.550Z,2.67
2023-04-18T12:31:55.882Z,2.10
2023-04-18T12:34:25.865Z,2.05
2023-04-18T12:36:53.800Z,3.15
2023-04-18T12:39:25.232Z,2.78
2023-04-18T12:41:52.832Z,2.53
2023-04-18T12:44:20.232Z,2.65
2023-04-18T12:46:47.295Z,2.88
2023-04-18T12:49:17.620Z,3.55
2023-04-18T12:51:44.781Z,2.78
2023-04-18T12:54:16.759Z,2.53
2023-04-18T12:56:47.539Z,2.92
2023-04-18T12:59:15.753Z,3.10
2023-04-18T13:01:44.056Z,3.00
2023-04-18T13:04:12.935Z,2.72
2023-04-18T13:06:43.967Z,3.08
2023-04-18T13:09:13.947Z,2.80
2023-04-18T13:11:41.774Z,3.10
2023-04-18T13:14:12.672Z,2.88
2023-04-18T13:16:44.055Z,3.38
2023-04-18T13:19:11.510Z,3.30
2023-04-18T13:21:41.725Z,2.88
2023-04-18T13:24:09.101Z,2.90
2023-04-18T13:26:37.697Z,3.80
2023-04-18T13:29:05.636Z,3.00
2023-04-18T13:31:35.438Z,2.72
2023-04-18T13:34:02.421Z,3.33
2023-04-18T13:36:32.766Z,3.20
2023-04-18T13:39:00.167Z,3.45
2023-04-18T13:41:27.844Z,3.88
2023-04-18T13:43:54.885Z,3.33
2023-04-18T13:46:23.429Z,3.72
2023-04-18T13:48:50.555Z,3.22
2023-04-18T13:51:18.053Z,3.15
2023-04-18T13:53:45.068Z,3.47
2023-04-18T13:56:16.791Z,4.18
2023-04-18T13:58:47.033Z,3.55
2023-04-18T14:01:16.635Z,3.70
2023-04-18T14:03:44.287Z,4.72
2023-04-18T14:06:13.671Z,4.80
2023-04-18T14:08:43.466Z,4.57
2023-04-18T14:11:13.692Z,4.85
2023-04-18T14:13:42.395Z,4.95
2023-04-18T14:16:11.117Z,4.95
2023-04-18T14:18:54.646Z,4.72
2023-04-18T14:21:31.816Z,5.55
2023-04-18T14:23:58.954Z,5.68
2023-04-18T14:26:26.323Z,5.45
2023-04-18T14:28:54.975Z,6.15
2023-04-18T14:31:24.346Z,5.28
2023-04-18T14:33:51.607Z,4.82
2023-04-18T14:36:39.524Z,6.63
2023-04-18T14:39:06.950Z,5.90
2023-04-18T14:41:34.253Z,5.22
2023-04-18T14:44:06.079Z,5.85
2023-04-18T14:46:34.250Z,5.07
2023-04-18T14:49:01.553Z,5.07
2023-04-18T14:51:30.257Z,5.13
2023-04-18T14:53:57.769Z,5.30
2023-04-18T14:56:26.914Z,5.10
2023-04-18T14:58:55.791Z,6.18
2023-04-18T15:01:23.281Z,8.27
